sensor_id;sensor_type;location;lat;lon;timestamp;P1;durP1;ratioP1;P2;durP2;ratioP2
21258;SDS011;10787;53.364;-1.480;2023-08-06T00:00:27;6.17;;;3.47;;
21258;SDS011;10787;53.364;-1.480;2023-08-06T00:03:12;7.43;;;3.50;;
21258;SDS011;10787;53.364;-1.480;2023-08-06T00:05:56;6.60;;;3.50;;
21258;SDS011;10787;53.364;-1.480;2023-08-06T00:08:40;6.80;;;3.57;;
21258;SDS011;10787;53.364;-1.480;2023-08-06T00:11:25;8.77;;;3.40;;
21258;SDS011;10787;53.364;-1.480;2023-08-06T00:14:09;5.87;;;3.43;;
21258;SDS011;10787;53.364;-1.480;2023-08-06T00:16:53;8.23;;;3.50;;
21258;SDS011;10787;53.364;-1.480;2023-08-06T00:19:38;7.13;;;3.60;;
21258;SDS011;10787;53.364;-1.480;2023-08-06T00:22:22;8.10;;;3.30;;
21258;SDS011;10787;53.364;-1.480;2023-08-06T00:25:06;8.13;;;3.63;;
21258;SDS011;10787;53.364;-1.480;2023-08-06T00:27:51;5.93;;;3.30;;
21258;SDS011;10787;53.364;-1.480;2023-08-06T00:30:35;5.47;;;3.07;;
21258;SDS011;10787;53.364;-1.480;2023-08-06T00:33:20;5.47;;;3.23;;
21258;SDS011;10787;53.364;-1.480;2023-08-06T00:36:05;6.23;;;3.33;;
21258;SDS011;10787;53.364;-1.480;2023-08-06T00:38:49;6.27;;;3.30;;
21258;SDS011;10787;53.364;-1.480;2023-08-06T00:41:33;6.00;;;3.37;;
21258;SDS011;10787;53.364;-1.480;2023-08-06T00:44:18;6.73;;;3.17;;
21258;SDS011;10787;53.364;-1.480;2023-08-06T00:47:02;6.97;;;3.57;;
21258;SDS011;10787;53.364;-1.480;2023-08-06T00:49:46;7.47;;;3.20;;
21258;SDS011;10787;53.364;-1.480;2023-08-06T00:52:31;6.97;;;3.30;;
21258;SDS011;10787;53.364;-1.480;2023-08-06T00:55:15;5.80;;;3.13;;
21258;SDS011;10787;53.364;-1.480;2023-08-06T00:58:00;9.23;;;3.40;;
21258;SDS011;10787;53.364;-1.480;2023-08-06T01:00:45;3.80;;;2.80;;
21258;SDS011;10787;53.364;-1.480;2023-08-06T01:03:29;3.87;;;3.10;;
21258;SDS011;10787;53.364;-1.480;2023-08-06T01:06:14;8.13;;;3.47;;
21258;SDS011;10787;53.364;-1.480;2023-08-06T01:09:05;6.07;;;3.50;;
21258;SDS011;10787;53.364;-1.480;2023-08-06T01:12:17;6.13;;;3.00;;
21258;SDS011;10787;53.364;-1.480;2023-08-06T01:15:37;7.80;;;3.20;;
21258;SDS011;10787;53.364;-1.480;2023-08-06T01:18:15;6.13;;;3.43;;
21258;SDS011;10787;53.364;-1.480;2023-08-06T01:21:00;5.00;;;3.33;;
21258;SDS011;10787;53.364;-1.480;2023-08-06T01:23:45;5.90;;;3.40;;
21258;SDS011;10787;53.364;-1.480;2023-08-06T01:29:23;7.73;;;3.13;;
21258;SDS011;10787;53.364;-1.480;2023-08-06T01:32:14;4.60;;;3.17;;
21258;SDS011;10787;53.364;-1.480;2023-08-06T01:34:59;7.13;;;3.33;;
21258;SDS011;10787;53.364;-1.480;2023-08-06T01:37:45;6.53;;;3.13;;
21258;SDS011;10787;53.364;-1.480;2023-08-06T01:40:30;4.93;;;2.93;;
21258;SDS011;10787;53.364;-1.480;2023-08-06T01:43:16;7.23;;;3.57;;
21258;SDS011;10787;53.364;-1.480;2023-08-06T01:46:00;6.57;;;3.10;;
21258;SDS011;10787;53.364;-1.480;2023-08-06T01:48:45;6.23;;;3.57;;
21258;SDS011;10787;53.364;-1.480;2023-08-06T01:51:29;6.60;;;3.20;;
21258;SDS011;10787;53.364;-1.480;2023-08-06T01:54:13;6.73;;;3.37;;
21258;SDS011;10787;53.364;-1.480;2023-08-06T01:56:57;5.33;;;2.87;;
21258;SDS011;10787;53.364;-1.480;2023-08-06T01:59:42;5.90;;;2.83;;
21258;SDS011;10787;53.364;-1.480;2023-08-06T02:02:26;4.80;;;3.10;;
21258;SDS011;10787;53.364;-1.480;2023-08-06T02:05:11;4.43;;;3.27;;
21258;SDS011;10787;53.364;-1.480;2023-08-06T02:07:55;5.33;;;3.07;;
21258;SDS011;10787;53.364;-1.480;2023-08-06T02:10:39;5.20;;;3.40;;
21258;SDS011;10787;53.364;-1.480;2023-08-06T02:13:24;6.13;;;3.33;;
21258;SDS011;10787;53.364;-1.480;2023-08-06T02:16:08;6.03;;;3.20;;
21258;SDS011;10787;53.364;-1.480;2023-08-06T02:18:53;6.93;;;3.27;;
21258;SDS011;10787;53.364;-1.480;2023-08-06T02:21:37;6.77;;;3.30;;
21258;SDS011;10787;53.364;-1.480;2023-08-06T02:24:21;5.87;;;3.40;;
21258;SDS011;10787;53.364;-1.480;2023-08-06T02:27:05;5.53;;;3.10;;
21258;SDS011;10787;53.364;-1.480;2023-08-06T02:29:49;5.07;;;3.50;;
21258;SDS011;10787;53.364;-1.480;2023-08-06T02:32:34;5.50;;;3.27;;
21258;SDS011;10787;53.364;-1.480;2023-08-06T02:35:19;5.37;;;3.10;;
21258;SDS011;10787;53.364;-1.480;2023-08-06T02:38:03;7.10;;;3.30;;
21258;SDS011;10787;53.364;-1.480;2023-08-06T02:40:47;6.37;;;3.50;;
21258;SDS011;10787;53.364;-1.480;2023-08-06T02:43:31;9.73;;;3.60;;
21258;SDS011;10787;53.364;-1.480;2023-08-06T02:46:16;7.47;;;3.40;;
21258;SDS011;10787;53.364;-1.480;2023-08-06T02:49:01;6.10;;;3.40;;
21258;SDS011;10787;53.364;-1.480;2023-08-06T02:51:45;4.50;;;3.17;;
21258;SDS011;10787;53.364;-1.480;2023-08-06T02:54:29;5.40;;;3.47;;
21258;SDS011;10787;53.364;-1.480;2023-08-06T02:57:13;8.77;;;3.37;;
21258;SDS011;10787;53.364;-1.480;2023-08-06T02:59:57;7.20;;;3.57;;
21258;SDS011;10787;53.364;-1.480;2023-08-06T03:02:41;5.57;;;3.20;;
21258;SDS011;10787;53.364;-1.480;2023-08-06T03:05:25;5.03;;;3.30;;
21258;SDS011;10787;53.364;-1.480;2023-08-06T03:08:09;8.07;;;3.40;;
21258;SDS011;10787;53.364;-1.480;2023-08-06T03:10:53;6.90;;;3.30;;
21258;SDS011;10787;53.364;-1.480;2023-08-06T03:13:38;5.97;;;3.23;;
21258;SDS011;10787;53.364;-1.480;2023-08-06T03:16:22;6.73;;;3.27;;
21258;SDS011;10787;53.364;-1.480;2023-08-06T03:19:06;6.20;;;3.40;;
21258;SDS011;10787;53.364;-1.480;2023-08-06T03:21:50;4.60;;;3.00;;
21258;SDS011;10787;53.364;-1.480;2023-08-06T03:24:34;5.87;;;3.30;;
21258;SDS011;10787;53.364;-1.480;2023-08-06T03:27:19;5.63;;;3.30;;
21258;SDS011;10787;53.364;-1.480;2023-08-06T03:30:03;4.10;;;3.03;;
21258;SDS011;10787;53.364;-1.480;2023-08-06T03:32:47;4.77;;;3.10;;
21258;SDS011;10787;53.364;-1.480;2023-08-06T03:35:31;5.40;;;3.10;;
21258;SDS011;10787;53.364;-1.480;2023-08-06T03:38:16;7.83;;;2.87;;
21258;SDS011;10787;53.364;-1.480;2023-08-06T03:41:00;4.73;;;3.07;;
21258;SDS011;10787;53.364;-1.480;2023-08-06T03:43:44;5.10;;;3.10;;
21258;SDS011;10787;53.364;-1.480;2023-08-06T03:46:28;5.33;;;3.03;;
21258;SDS011;10787;53.364;-1.480;2023-08-06T03:49:12;4.20;;;2.93;;
21258;SDS011;10787;53.364;-1.480;2023-08-06T03:51:56;4.57;;;2.70;;
21258;SDS011;10787;53.364;-1.480;2023-08-06T03:54:41;4.47;;;2.73;;
21258;SDS011;10787;53.364;-1.480;2023-08-06T03:57:26;4.60;;;2.90;;
21258;SDS011;10787;53.364;-1.480;2023-08-06T04:00:11;6.97;;;2.90;;
21258;SDS011;10787;53.364;-1.480;2023-08-06T04:02:56;4.73;;;2.77;;
21258;SDS011;10787;53.364;-1.480;2023-08-06T04:05:40;5.93;;;3.00;;
21258;SDS011;10787;53.364;-1.480;2023-08-06T04:08:25;4.03;;;2.80;;
21258;SDS011;10787;53.364;-1.480;2023-08-06T04:11:09;5.13;;;2.70;;
21258;SDS011;10787;53.364;-1.480;2023-08-06T04:13:53;4.83;;;3.00;;
21258;SDS011;10787;53.364;-1.480;2023-08-06T04:16:38;5.03;;;2.90;;
21258;SDS011;10787;53.364;-1.480;2023-08-06T04:19:22;4.83;;;2.77;;
21258;SDS011;10787;53.364;-1.480;2023-08-06T04:22:07;4.63;;;2.90;;
21258;SDS011;10787;53.364;-1.480;2023-08-06T04:24:52;5.80;;;2.70;;
21258;SDS011;10787;53.364;-1.480;2023-08-06T04:27:36;5.03;;;2.93;;
21258;SDS011;10787;53.364;-1.480;2023-08-06T04:30:25;6.10;;;3.03;;
21258;SDS011;10787;53.364;-1.480;2023-08-06T04:33:09;4.93;;;2.73;;
21258;SDS011;10787;53.364;-1.480;2023-08-06T04:35:53;7.30;;;3.20;;
21258;SDS011;10787;53.364;-1.480;2023-08-06T04:38:39;7.63;;;3.30;;
21258;SDS011;10787;53.364;-1.480;2023-08-06T04:41:28;4.97;;;3.10;;
21258;SDS011;10787;53.364;-1.480;2023-08-06T04:44:12;6.43;;;3.10;;
21258;SDS011;10787;53.364;-1.480;2023-08-06T04:46:56;5.07;;;2.70;;
21258;SDS011;10787;53.364;-1.480;2023-08-06T04:49:40;5.07;;;3.07;;
21258;SDS011;10787;53.364;-1.480;2023-08-06T04:52:24;6.57;;;3.00;;
21258;SDS011;10787;53.364;-1.480;2023-08-06T04:55:11;5.50;;;3.10;;
21258;SDS011;10787;53.364;-1.480;2023-08-06T04:57:55;6.37;;;3.10;;
21258;SDS011;10787;53.364;-1.480;2023-08-06T05:00:39;4.40;;;2.90;;
21258;SDS011;10787;53.364;-1.480;2023-08-06T05:03:23;4.77;;;2.87;;
21258;SDS011;10787;53.364;-1.480;2023-08-06T05:06:07;4.57;;;2.93;;
21258;SDS011;10787;53.364;-1.480;2023-08-06T05:08:52;5.07;;;2.80;;
21258;SDS011;10787;53.364;-1.480;2023-08-06T05:11:36;3.47;;;2.70;;
21258;SDS011;10787;53.364;-1.480;2023-08-06T05:14:20;4.43;;;2.90;;
21258;SDS011;10787;53.364;-1.480;2023-08-06T05:17:04;5.77;;;3.10;;
21258;SDS011;10787;53.364;-1.480;2023-08-06T05:19:49;5.17;;;2.97;;
21258;SDS011;10787;53.364;-1.480;2023-08-06T05:22:33;4.17;;;3.00;;
21258;SDS011;10787;53.364;-1.480;2023-08-06T05:25:17;4.37;;;2.80;;
21258;SDS011;10787;53.364;-1.480;2023-08-06T05:28:02;5.60;;;3.20;;
21258;SDS011;10787;53.364;-1.480;2023-08-06T05:30:47;4.40;;;2.70;;
21258;SDS011;10787;53.364;-1.480;2023-08-06T05:33:31;4.87;;;2.87;;
21258;SDS011;10787;53.364;-1.480;2023-08-06T05:36:15;4.80;;;2.60;;
21258;SDS011;10787;53.364;-1.480;2023-08-06T05:39:01;4.87;;;2.70;;
21258;SDS011;10787;53.364;-1.480;2023-08-06T05:41:46;4.53;;;2.90;;
21258;SDS011;10787;53.364;-1.480;2023-08-06T05:44:30;4.50;;;2.80;;
21258;SDS011;10787;53.364;-1.480;2023-08-06T05:47:14;6.70;;;2.77;;
21258;SDS011;10787;53.364;-1.480;2023-08-06T05:49:58;6.27;;;3.10;;
21258;SDS011;10787;53.364;-1.480;2023-08-06T05:52:42;6.00;;;2.70;;
21258;SDS011;10787;53.364;-1.480;2023-08-06T05:55:26;5.07;;;2.80;;
21258;SDS011;10787;53.364;-1.480;2023-08-06T05:58:11;4.27;;;2.57;;
21258;SDS011;10787;53.364;-1.480;2023-08-06T06:00:55;4.73;;;2.70;;
21258;SDS011;10787;53.364;-1.480;2023-08-06T06:03:39;5.00;;;2.87;;
21258;SDS011;10787;53.364;-1.480;2023-08-06T06:06:23;5.13;;;3.00;;
21258;SDS011;10787;53.364;-1.480;2023-08-06T06:09:07;3.93;;;2.60;;
21258;SDS011;10787;53.364;-1.480;2023-08-06T06:11:51;4.77;;;2.43;;
21258;SDS011;10787;53.364;-1.480;2023-08-06T06:14:36;5.53;;;2.70;;
21258;SDS011;10787;53.364;-1.480;2023-08-06T06:17:29;5.43;;;2.60;;
21258;SDS011;10787;53.364;-1.480;2023-08-06T06:20:13;5.67;;;2.60;;
21258;SDS011;10787;53.364;-1.480;2023-08-06T06:22:57;4.70;;;2.60;;
21258;SDS011;10787;53.364;-1.480;2023-08-06T06:25:50;4.20;;;2.60;;
21258;SDS011;10787;53.364;-1.480;2023-08-06T06:28:37;6.45;;;2.70;;
21258;SDS011;10787;53.364;-1.480;2023-08-06T06:31:21;3.63;;;2.60;;
21258;SDS011;10787;53.364;-1.480;2023-08-06T06:34:06;4.10;;;2.60;;
21258;SDS011;10787;53.364;-1.480;2023-08-06T06:36:50;4.82;;;2.63;;
21258;SDS011;10787;53.364;-1.480;2023-08-06T06:39:34;4.43;;;2.40;;
21258;SDS011;10787;53.364;-1.480;2023-08-06T06:42:18;4.50;;;2.50;;
21258;SDS011;10787;53.364;-1.480;2023-08-06T06:45:03;4.03;;;2.50;;
21258;SDS011;10787;53.364;-1.480;2023-08-06T06:47:48;4.20;;;2.42;;
21258;SDS011;10787;53.364;-1.480;2023-08-06T06:50:32;3.72;;;2.60;;
21258;SDS011;10787;53.364;-1.480;2023-08-06T06:53:16;4.93;;;2.40;;
21258;SDS011;10787;53.364;-1.480;2023-08-06T06:56:01;4.78;;;2.42;;
21258;SDS011;10787;53.364;-1.480;2023-08-06T06:58:47;3.80;;;2.42;;
21258;SDS011;10787;53.364;-1.480;2023-08-06T07:01:31;3.38;;;2.42;;
21258;SDS011;10787;53.364;-1.480;2023-08-06T07:04:15;4.28;;;2.33;;
21258;SDS011;10787;53.364;-1.480;2023-08-06T07:06:59;4.70;;;2.55;;
21258;SDS011;10787;53.364;-1.480;2023-08-06T07:09:44;4.18;;;2.28;;
21258;SDS011;10787;53.364;-1.480;2023-08-06T07:12:28;2.97;;;2.30;;
21258;SDS011;10787;53.364;-1.480;2023-08-06T07:15:12;3.15;;;2.30;;
21258;SDS011;10787;53.364;-1.480;2023-08-06T07:17:57;3.30;;;2.30;;
21258;SDS011;10787;53.364;-1.480;2023-08-06T07:20:41;5.47;;;2.47;;
21258;SDS011;10787;53.364;-1.480;2023-08-06T07:23:31;3.78;;;2.25;;
21258;SDS011;10787;53.364;-1.480;2023-08-06T07:26:15;5.15;;;2.63;;
21258;SDS011;10787;53.364;-1.480;2023-08-06T07:29:00;2.80;;;2.30;;
21258;SDS011;10787;53.364;-1.480;2023-08-06T07:31:45;3.67;;;2.40;;
21258;SDS011;10787;53.364;-1.480;2023-08-06T07:34:29;4.13;;;2.30;;
21258;SDS011;10787;53.364;-1.480;2023-08-06T07:37:13;2.88;;;2.22;;
21258;SDS011;10787;53.364;-1.480;2023-08-06T07:39:58;3.78;;;2.20;;
21258;SDS011;10787;53.364;-1.480;2023-08-06T07:42:42;4.55;;;2.05;;
21258;SDS011;10787;53.364;-1.480;2023-08-06T07:45:26;3.80;;;2.38;;
21258;SDS011;10787;53.364;-1.480;2023-08-06T07:48:10;2.67;;;2.03;;
21258;SDS011;10787;53.364;-1.480;2023-08-06T07:50:54;3.95;;;2.28;;
21258;SDS011;10787;53.364;-1.480;2023-08-06T07:53:39;2.80;;;2.00;;
21258;SDS011;10787;53.364;-1.480;2023-08-06T07:56:24;3.13;;;2.10;;
21258;SDS011;10787;53.364;-1.480;2023-08-06T07:59:08;3.28;;;2.10;;
21258;SDS011;10787;53.364;-1.480;2023-08-06T08:01:53;4.40;;;2.30;;
21258;SDS011;10787;53.364;-1.480;2023-08-06T08:04:37;4.03;;;2.20;;
21258;SDS011;10787;53.364;-1.480;2023-08-06T08:07:21;4.05;;;2.35;;
21258;SDS011;10787;53.364;-1.480;2023-08-06T08:10:05;4.18;;;2.30;;
21258;SDS011;10787;53.364;-1.480;2023-08-06T08:12:50;3.40;;;2.20;;
21258;SDS011;10787;53.364;-1.480;2023-08-06T08:15:34;3.67;;;2.20;;
21258;SDS011;10787;53.364;-1.480;2023-08-06T08:18:19;2.53;;;1.88;;
21258;SDS011;10787;53.364;-1.480;2023-08-06T08:21:03;3.50;;;2.40;;
21258;SDS011;10787;53.364;-1.480;2023-08-06T08:23:47;4.55;;;1.88;;
21258;SDS011;10787;53.364;-1.480;2023-08-06T08:26:32;2.95;;;2.00;;
21258;SDS011;10787;53.364;-1.480;2023-08-06T08:29:30;3.03;;;2.13;;
21258;SDS011;10787;53.364;-1.480;2023-08-06T08:32:14;2.60;;;2.10;;
21258;SDS011;10787;53.364;-1.480;2023-08-06T08:34:59;4.05;;;2.20;;
21258;SDS011;10787;53.364;-1.480;2023-08-06T08:37:44;3.40;;;2.00;;
21258;SDS011;10787;53.364;-1.480;2023-08-06T08:40:31;2.30;;;1.85;;
21258;SDS011;10787;53.364;-1.480;2023-08-06T08:43:16;3.13;;;2.05;;
21258;SDS011;10787;53.364;-1.480;2023-08-06T08:52:51;2.03;;;1.80;;
21258;SDS011;10787;53.364;-1.480;2023-08-06T08:55:35;3.35;;;2.08;;
21258;SDS011;10787;53.364;-1.480;2023-08-06T08:58:21;5.28;;;2.28;;
21258;SDS011;10787;53.364;-1.480;2023-08-06T09:01:06;2.80;;;2.00;;
21258;SDS011;10787;53.364;-1.480;2023-08-06T09:03:52;2.97;;;1.95;;
21258;SDS011;10787;53.364;-1.480;2023-08-06T09:06:38;3.20;;;2.25;;
21258;SDS011;10787;53.364;-1.480;2023-08-06T09:09:34;2.78;;;1.98;;
21258;SDS011;10787;53.364;-1.480;2023-08-06T09:12:21;3.15;;;2.10;;
21258;SDS011;10787;53.364;-1.480;2023-08-06T09:15:06;3.78;;;2.22;;
21258;SDS011;10787;53.364;-1.480;2023-08-06T09:17:54;2.85;;;2.17;;
21258;SDS011;10787;53.364;-1.480;2023-08-06T09:20:39;3.03;;;2.30;;
21258;SDS011;10787;53.364;-1.480;2023-08-06T09:23:30;2.80;;;2.10;;
21258;SDS011;10787;53.364;-1.480;2023-08-06T09:26:15;3.03;;;2.10;;
21258;SDS011;10787;53.364;-1.480;2023-08-06T09:28:59;2.80;;;2.10;;
21258;SDS011;10787;53.364;-1.480;2023-08-06T09:31:44;3.00;;;2.15;;
21258;SDS011;10787;53.364;-1.480;2023-08-06T09:37:49;3.00;;;2.00;;
21258;SDS011;10787;53.364;-1.480;2023-08-06T09:40:36;3.47;;;2.00;;
21258;SDS011;10787;53.364;-1.480;2023-08-06T09:43:22;4.22;;;2.15;;
21258;SDS011;10787;53.364;-1.480;2023-08-06T09:46:25;2.58;;;2.13;;
21258;SDS011;10787;53.364;-1.480;2023-08-06T09:49:15;2.53;;;1.95;;
21258;SDS011;10787;53.364;-1.480;2023-08-06T09:52:03;4.55;;;2.10;;
21258;SDS011;10787;53.364;-1.480;2023-08-06T09:54:48;3.28;;;2.17;;
21258;SDS011;10787;53.364;-1.480;2023-08-06T09:57:34;2.60;;;2.08;;
21258;SDS011;10787;53.364;-1.480;2023-08-06T10:00:22;4.45;;;2.20;;
21258;SDS011;10787;53.364;-1.480;2023-08-06T10:03:12;2.85;;;1.90;;
21258;SDS011;10787;53.364;-1.480;2023-08-06T10:06:01;3.17;;;1.98;;
21258;SDS011;10787;53.364;-1.480;2023-08-06T10:08:50;2.22;;;1.90;;
21258;SDS011;10787;53.364;-1.480;2023-08-06T10:11:37;4.40;;;2.20;;
21258;SDS011;10787;53.364;-1.480;2023-08-06T10:14:24;3.47;;;1.83;;
21258;SDS011;10787;53.364;-1.480;2023-08-06T10:17:11;3.08;;;2.15;;
21258;SDS011;10787;53.364;-1.480;2023-08-06T10:19:58;4.20;;;2.20;;
21258;SDS011;10787;53.364;-1.480;2023-08-06T10:22:44;2.40;;;1.90;;
21258;SDS011;10787;53.364;-1.480;2023-08-06T10:25:32;3.13;;;2.13;;
21258;SDS011;10787;53.364;-1.480;2023-08-06T10:28:17;3.83;;;2.35;;
21258;SDS011;10787;53.364;-1.480;2023-08-06T10:31:06;1.95;;;1.70;;
21258;SDS011;10787;53.364;-1.480;2023-08-06T10:33:50;3.08;;;2.08;;
21258;SDS011;10787;53.364;-1.480;2023-08-06T10:36:37;2.88;;;1.75;;
21258;SDS011;10787;53.364;-1.480;2023-08-06T10:39:25;2.63;;;2.05;;
21258;SDS011;10787;53.364;-1.480;2023-08-06T10:42:19;2.70;;;1.90;;
21258;SDS011;10787;53.364;-1.480;2023-08-06T10:45:14;2.00;;;1.60;;
21258;SDS011;10787;53.364;-1.480;2023-08-06T10:48:00;2.53;;;2.00;;
21258;SDS011;10787;53.364;-1.480;2023-08-06T10:50:44;2.38;;;1.98;;
21258;SDS011;10787;53.364;-1.480;2023-08-06T10:53:29;3.00;;;1.80;;
21258;SDS011;10787;53.364;-1.480;2023-08-06T10:58:59;1.98;;;1.77;;
21258;SDS011;10787;53.364;-1.480;2023-08-06T11:01:43;2.88;;;1.85;;
21258;SDS011;10787;53.364;-1.480;2023-08-06T11:04:30;2.17;;;1.75;;
21258;SDS011;10787;53.364;-1.480;2023-08-06T11:07:16;2.63;;;2.00;;
21258;SDS011;10787;53.364;-1.480;2023-08-06T11:10:01;3.47;;;2.15;;
21258;SDS011;10787;53.364;-1.480;2023-08-06T11:12:49;2.55;;;2.00;;
21258;SDS011;10787;53.364;-1.480;2023-08-06T11:15:34;4.57;;;1.90;;
21258;SDS011;10787;53.364;-1.480;2023-08-06T11:18:18;2.15;;;1.70;;
21258;SDS011;10787;53.364;-1.480;2023-08-06T11:21:02;3.00;;;1.60;;
21258;SDS011;10787;53.364;-1.480;2023-08-06T11:23:46;2.00;;;1.67;;
21258;SDS011;10787;53.364;-1.480;2023-08-06T11:26:32;3.42;;;1.83;;
21258;SDS011;10787;53.364;-1.480;2023-08-06T11:29:16;1.80;;;1.50;;
21258;SDS011;10787;53.364;-1.480;2023-08-06T11:32:04;1.95;;;1.60;;
21258;SDS011;10787;53.364;-1.480;2023-08-06T11:34:49;1.73;;;1.58;;
21258;SDS011;10787;53.364;-1.480;2023-08-06T11:37:33;2.60;;;1.52;;
21258;SDS011;10787;53.364;-1.480;2023-08-06T11:40:22;2.10;;;1.50;;
21258;SDS011;10787;53.364;-1.480;2023-08-06T11:43:13;1.52;;;1.40;;
21258;SDS011;10787;53.364;-1.480;2023-08-06T11:46:07;2.22;;;1.70;;
21258;SDS011;10787;53.364;-1.480;2023-08-06T11:48:54;2.17;;;1.70;;
21258;SDS011;10787;53.364;-1.480;2023-08-06T11:51:40;2.33;;;1.40;;
21258;SDS011;10787;53.364;-1.480;2023-08-06T11:54:31;2.08;;;1.38;;
21258;SDS011;10787;53.364;-1.480;2023-08-06T11:57:17;1.90;;;1.50;;
21258;SDS011;10787;53.364;-1.480;2023-08-06T12:00:02;2.08;;;1.60;;
21258;SDS011;10787;53.364;-1.480;2023-08-06T12:02:54;2.17;;;1.40;;
21258;SDS011;10787;53.364;-1.480;2023-08-06T12:05:40;2.90;;;1.30;;
21258;SDS011;10787;53.364;-1.480;2023-08-06T12:08:28;1.85;;;1.23;;
21258;SDS011;10787;53.364;-1.480;2023-08-06T12:11:12;3.40;;;1.40;;
21258;SDS011;10787;53.364;-1.480;2023-08-06T12:13:56;2.78;;;1.60;;
21258;SDS011;10787;53.364;-1.480;2023-08-06T12:16:41;2.45;;;1.35;;
21258;SDS011;10787;53.364;-1.480;2023-08-06T12:19:25;2.00;;;1.40;;
21258;SDS011;10787;53.364;-1.480;2023-08-06T12:22:09;1.75;;;1.48;;
21258;SDS011;10787;53.364;-1.480;2023-08-06T12:24:53;1.83;;;1.38;;
21258;SDS011;10787;53.364;-1.480;2023-08-06T12:27:38;1.75;;;1.50;;
21258;SDS011;10787;53.364;-1.480;2023-08-06T12:30:25;1.75;;;1.30;;
21258;SDS011;10787;53.364;-1.480;2023-08-06T12:33:09;3.13;;;1.50;;
21258;SDS011;10787;53.364;-1.480;2023-08-06T12:35:53;1.83;;;1.40;;
21258;SDS011;10787;53.364;-1.480;2023-08-06T12:38:38;1.55;;;1.40;;
21258;SDS011;10787;53.364;-1.480;2023-08-06T12:41:22;2.40;;;1.40;;
21258;SDS011;10787;53.364;-1.480;2023-08-06T12:44:06;1.73;;;1.50;;
21258;SDS011;10787;53.364;-1.480;2023-08-06T12:46:51;2.30;;;1.60;;
21258;SDS011;10787;53.364;-1.480;2023-08-06T12:49:35;1.67;;;1.38;;
21258;SDS011;10787;53.364;-1.480;2023-08-06T12:52:20;1.45;;;1.30;;
21258;SDS011;10787;53.364;-1.480;2023-08-06T12:55:05;2.83;;;1.50;;
21258;SDS011;10787;53.364;-1.480;2023-08-06T12:57:49;2.97;;;1.33;;
21258;SDS011;10787;53.364;-1.480;2023-08-06T13:00:33;1.45;;;1.23;;
21258;SDS011;10787;53.364;-1.480;2023-08-06T13:03:18;1.38;;;1.20;;
21258;SDS011;10787;53.364;-1.480;2023-08-06T13:06:02;2.28;;;1.30;;
21258;SDS011;10787;53.364;-1.480;2023-08-06T13:08:47;1.77;;;1.48;;
21258;SDS011;10787;53.364;-1.480;2023-08-06T13:11:31;2.25;;;1.42;;
21258;SDS011;10787;53.364;-1.480;2023-08-06T13:14:16;1.40;;;1.30;;
21258;SDS011;10787;53.364;-1.480;2023-08-06T13:17:01;2.65;;;1.63;;
21258;SDS011;10787;53.364;-1.480;2023-08-06T13:19:45;1.60;;;1.27;;
21258;SDS011;10787;53.364;-1.480;2023-08-06T13:22:30;2.15;;;1.60;;
21258;SDS011;10787;53.364;-1.480;2023-08-06T13:25:14;3.15;;;1.70;;
21258;SDS011;10787;53.364;-1.480;2023-08-06T13:27:59;2.03;;;1.60;;
21258;SDS011;10787;53.364;-1.480;2023-08-06T13:30:44;2.63;;;1.38;;
21258;SDS011;10787;53.364;-1.480;2023-08-06T13:33:28;2.15;;;1.65;;
21258;SDS011;10787;53.364;-1.480;2023-08-06T13:36:12;2.42;;;1.48;;
21258;SDS011;10787;53.364;-1.480;2023-08-06T13:38:56;3.53;;;2.25;;
21258;SDS011;10787;53.364;-1.480;2023-08-06T13:41:40;3.13;;;2.20;;
21258;SDS011;10787;53.364;-1.480;2023-08-06T13:44:24;3.22;;;2.33;;
21258;SDS011;10787;53.364;-1.480;2023-08-06T13:47:09;3.92;;;2.30;;
21258;SDS011;10787;53.364;-1.480;2023-08-06T13:49:54;3.58;;;1.90;;
21258;SDS011;10787;53.364;-1.480;2023-08-06T13:52:38;3.78;;;2.00;;
21258;SDS011;10787;53.364;-1.480;2023-08-06T13:55:23;2.88;;;2.20;;
21258;SDS011;10787;53.364;-1.480;2023-08-06T13:58:25;2.42;;;1.85;;
21258;SDS011;10787;53.364;-1.480;2023-08-06T14:01:10;2.53;;;2.13;;
21258;SDS011;10787;53.364;-1.480;2023-08-06T14:03:57;3.25;;;2.10;;
21258;SDS011;10787;53.364;-1.480;2023-08-06T14:06:41;2.20;;;1.90;;
21258;SDS011;10787;53.364;-1.480;2023-08-06T14:09:26;2.50;;;1.77;;
21258;SDS011;10787;53.364;-1.480;2023-08-06T14:12:10;2.55;;;1.80;;
21258;SDS011;10787;53.364;-1.480;2023-08-06T14:14:55;2.97;;;2.15;;
21258;SDS011;10787;53.364;-1.480;2023-08-06T14:17:40;2.90;;;2.58;;
21258;SDS011;10787;53.364;-1.480;2023-08-06T14:20:24;2.85;;;1.95;;
21258;SDS011;10787;53.364;-1.480;2023-08-06T14:23:08;2.97;;;2.00;;
21258;SDS011;10787;53.364;-1.480;2023-08-06T14:25:53;2.38;;;1.98;;
21258;SDS011;10787;53.364;-1.480;2023-08-06T14:28:37;3.58;;;1.92;;
21258;SDS011;10787;53.364;-1.480;2023-08-06T14:31:21;2.33;;;1.80;;
21258;SDS011;10787;53.364;-1.480;2023-08-06T14:34:05;3.58;;;1.80;;
21258;SDS011;10787;53.364;-1.480;2023-08-06T14:36:50;3.45;;;1.80;;
21258;SDS011;10787;53.364;-1.480;2023-08-06T14:39:34;3.90;;;1.80;;
21258;SDS011;10787;53.364;-1.480;2023-08-06T14:42:18;3.75;;;1.92;;
21258;SDS011;10787;53.364;-1.480;2023-08-06T14:45:03;2.30;;;1.98;;
21258;SDS011;10787;53.364;-1.480;2023-08-06T14:47:47;3.53;;;2.03;;
21258;SDS011;10787;53.364;-1.480;2023-08-06T14:50:31;3.30;;;1.88;;
21258;SDS011;10787;53.364;-1.480;2023-08-06T14:53:16;3.65;;;2.13;;
21258;SDS011;10787;53.364;-1.480;2023-08-06T14:56:01;2.72;;;2.17;;
21258;SDS011;10787;53.364;-1.480;2023-08-06T14:58:45;4.22;;;2.20;;
21258;SDS011;10787;53.364;-1.480;2023-08-06T15:01:29;4.03;;;2.60;;
21258;SDS011;10787;53.364;-1.480;2023-08-06T15:04:14;3.40;;;2.50;;
21258;SDS011;10787;53.364;-1.480;2023-08-06T15:06:58;3.15;;;2.38;;
21258;SDS011;10787;53.364;-1.480;2023-08-06T15:09:42;3.70;;;2.55;;
21258;SDS011;10787;53.364;-1.480;2023-08-06T15:12:27;3.20;;;2.10;;
21258;SDS011;10787;53.364;-1.480;2023-08-06T15:15:11;2.85;;;2.00;;
21258;SDS011;10787;53.364;-1.480;2023-08-06T15:17:56;2.63;;;2.05;;
21258;SDS011;10787;53.364;-1.480;2023-08-06T15:20:42;2.83;;;1.90;;
21258;SDS011;10787;53.364;-1.480;2023-08-06T15:23:33;2.78;;;2.00;;
21258;SDS011;10787;53.364;-1.480;2023-08-06T15:26:17;4.47;;;2.78;;
21258;SDS011;10787;53.364;-1.480;2023-08-06T15:29:03;2.53;;;1.98;;
21258;SDS011;10787;53.364;-1.480;2023-08-06T15:31:47;4.97;;;1.90;;
21258;SDS011;10787;53.364;-1.480;2023-08-06T15:34:31;3.15;;;1.90;;
21258;SDS011;10787;53.364;-1.480;2023-08-06T15:37:15;2.33;;;1.77;;
21258;SDS011;10787;53.364;-1.480;2023-08-06T15:40:09;2.63;;;1.60;;
21258;SDS011;10787;53.364;-1.480;2023-08-06T15:42:53;3.75;;;2.70;;
21258;SDS011;10787;53.364;-1.480;2023-08-06T15:45:45;4.10;;;2.70;;
21258;SDS011;10787;53.364;-1.480;2023-08-06T15:48:33;4.30;;;3.20;;
21258;SDS011;10787;53.364;-1.480;2023-08-06T15:51:23;2.80;;;2.20;;
21258;SDS011;10787;53.364;-1.480;2023-08-06T15:54:10;3.05;;;2.30;;
21258;SDS011;10787;53.364;-1.480;2023-08-06T15:56:57;3.90;;;2.53;;
21258;SDS011;10787;53.364;-1.480;2023-08-06T15:59:41;3.90;;;2.50;;
21258;SDS011;10787;53.364;-1.480;2023-08-06T16:02:26;4.85;;;2.33;;
21258;SDS011;10787;53.364;-1.480;2023-08-06T16:05:11;3.63;;;2.45;;
21258;SDS011;10787;53.364;-1.480;2023-08-06T16:07:58;4.05;;;2.60;;
21258;SDS011;10787;53.364;-1.480;2023-08-06T16:10:43;2.38;;;1.90;;
21258;SDS011;10787;53.364;-1.480;2023-08-06T16:13:32;1.25;;;0.98;;
21258;SDS011;10787;53.364;-1.480;2023-08-06T16:16:17;1.20;;;1.10;;
21258;SDS011;10787;53.364;-1.480;2023-08-06T16:19:04;1.17;;;0.90;;
21258;SDS011;10787;53.364;-1.480;2023-08-06T16:21:52;1.48;;;1.00;;
21258;SDS011;10787;53.364;-1.480;2023-08-06T16:24:36;1.42;;;1.00;;
21258;SDS011;10787;53.364;-1.480;2023-08-06T16:27:21;1.30;;;1.08;;
21258;SDS011;10787;53.364;-1.480;2023-08-06T16:30:05;1.90;;;1.02;;
21258;SDS011;10787;53.364;-1.480;2023-08-06T16:32:55;1.83;;;1.10;;
21258;SDS011;10787;53.364;-1.480;2023-08-06T16:35:42;1.33;;;1.00;;